Pagina principală
METAR-TAF:

METAR-TAF

Aeroporturi :

Weno, Micronezia

Latitudine: 07-28N, longitudine: 151-51E, elevație: 3 m

Observații meteo curente

Raportul a fost făcut în urmă cu 39 de minute, la 14:52 UTC
Vânt calm
Temperatură 26°C
Umiditate 94%
Presiune 1010 hPa
Vizibilitate: 24.1 km
Nori puțini la o înălțime de 1400 picior
Nori fragmentați la o înălțime de 12000 picior
Total acoperit la o înălțime de 28000 picior

METAR: PTKK 251452Z 00000KT 15SM FEW014 BKN120 OVC280 26/25 A2982 RMK SLP100 8/171 T02610250 57010

Ora: 01:31 (15:31 UTC)

Prognoză

Raportul a fost făcut în urmă cu 3 ore și 58 de minute, la 11:33 UTC
Prognoză valabilă de la 25 ora 12 UTC la 26 ora 12 UTC
Vânt 6 kt de la Sud/Sud-est
Vizibilitate: 10 km
Nori împrăștiați la o înălțime de 1400 picior
Nori împrăștiați la o înălțime de 12000 picior
averse în apropiere

TAF: PTKK 251133Z 2512/2612 15006KT P6SM VCSH SCT014 SCT120

Observații și prognoze meteo pentru peste 4.000 de aeroporturi (rapoarte METAR și TAF).

Stațiile disponibile sunt reprezentate pe hartă prin puncte galbene și roșii.

Țineți indicatorul mouse-ului pe punctul dorit pentru a vedea denumirea stației.

Apoi, faceți clic pentru a vedea observațiile și prognozele meteorologice.

Pentru a schimba harta: Pentru mărire, faceți clic pe butoanele verzi cu cruce neagră; pentru micșorare, pe butonul verde cu o liniuță; pentru hărți învecinate, pe săgețile verzi.


METAR-TAF: